Time;durP1;ratioP1;P1;durP2;ratioP2;P2;SDS_P1;SDS_P2;PMS_P1;PMS_P2;Temp;Humidity;BMP_temperature;BMP_pressure;BME280_temperature;BME280_humidity;BME280_pressure;Samples;Min_cycle;Max_cycle;Signal;HPM_P1;HPM_P2
2022/07/10 00:00:11;;;;;;;15.68;14.05;;;;;;;16.67;72.19;95347.81;5071638;28;20024;-80
2022/07/10 00:02:37;;;;;;;13.70;12.30;;;;;;;16.56;72.61;95351.22;5086914;28;20019;-82
2022/07/10 00:05:04;;;;;;;19.67;13.45;;;;;;;16.42;73.19;95347.75;5087761;28;20048;-80
2022/07/10 00:07:29;;;;;;;17.40;13.70;;;;;;;16.39;73.24;95340.91;5087235;28;20031;-80
2022/07/10 00:09:54;;;;;;;14.73;13.15;;;;;;;16.46;72.82;95340.03;5087640;28;20028;-79
2022/07/10 00:12:20;;;;;;;16.38;12.70;;;;;;;16.48;72.79;95343.34;5105816;28;20068;-80
2022/07/10 00:14:45;;;;;;;14.30;12.73;;;;;;;16.42;72.93;95340.47;5105681;28;20035;-80
2022/07/10 00:17:11;;;;;;;14.15;12.65;;;;;;;16.45;72.90;95344.63;5070980;28;20019;-81
2022/07/10 00:19:36;;;;;;;14.68;12.50;;;;;;;16.51;72.47;95341.03;5105061;28;20031;-85
2022/07/10 00:22:02;;;;;;;15.27;13.45;;;;;;;16.45;72.65;95344.63;5087529;28;20031;-81
2022/07/10 00:24:27;;;;;;;16.55;13.77;;;;;;;16.42;72.53;95343.19;5070267;28;20477;-80
2022/07/10 00:26:53;;;;;;;15.00;12.88;;;;;;;16.54;72.08;95340.59;5087174;28;20435;-80
2022/07/10 00:29:18;;;;;;;13.55;12.13;;;;;;;16.59;72.04;95341.84;5053299;28;20470;-80
2022/07/10 00:31:44;;;;;;;15.73;12.75;;;;;;;16.56;71.90;95349.34;5087079;28;20417;-80
2022/07/10 00:34:09;;;;;;;15.25;13.13;;;;;;;16.50;72.14;95335.84;5070002;28;20020;-81
2022/07/10 00:36:35;;;;;;;15.85;13.50;;;;;;;16.39;72.21;95340.91;5086885;28;20031;-80
2022/07/10 00:39:00;;;;;;;14.35;12.80;;;;;;;16.31;73.03;95339.25;5105566;28;20028;-79
2022/07/10 00:41:26;;;;;;;14.15;12.48;;;;;;;16.28;73.17;95333.47;5086414;28;20024;-81
2022/07/10 00:43:55;;;;;;;14.05;12.43;;;;;;;16.18;73.22;95337.47;5105786;28;20020;-80
2022/07/10 00:46:20;;;;;;;17.35;13.48;;;;;;;16.12;73.38;95338.31;5086549;28;20051;-80
2022/07/10 00:48:49;;;;;;;16.60;12.52;;;;;;;16.02;73.96;95335.25;5070565;28;20455;-80
2022/07/10 00:51:15;;;;;;;13.88;12.07;;;;;;;16.16;73.36;95327.88;5086521;28;20024;-80
2022/07/10 00:53:41;;;;;;;14.27;12.85;;;;;;;16.17;73.22;95316.00;5105147;28;20016;-81
2022/07/10 00:56:06;;;;;;;14.25;12.85;;;;;;;16.20;73.16;95323.72;5071463;28;20469;-81
2022/07/10 00:58:33;;;;;;;18.05;13.20;;;;;;;16.20;72.79;95318.31;5070734;28;20031;-81
2022/07/10 01:00:59;;;;;;;13.80;12.10;;;;;;;16.31;72.42;95324.91;5088204;28;20042;-81
2022/07/10 01:03:25;;;;;;;13.35;11.05;;;;;;;16.40;72.70;95326.31;5106337;28;20425;-81
2022/07/10 01:05:50;;;;;;;13.38;11.98;;;;;;;16.36;72.27;95325.09;5110487;28;20050;-81
2022/07/10 01:08:16;;;;;;;12.85;11.32;;;;;;;16.33;72.30;95319.28;5109016;28;20453;-81
2022/07/10 01:10:41;;;;;;;13.80;12.05;;;;;;;16.35;72.28;95325.28;5092145;28;20030;-81
2022/07/10 01:13:07;;;;;;;15.93;11.50;;;;;;;16.32;72.17;95323.88;5091479;28;20506;-81
2022/07/10 01:15:32;;;;;;;13.30;11.80;;;;;;;16.34;71.69;95321.78;5091449;28;20080;-81
2022/07/10 01:17:58;;;;;;;16.33;12.32;;;;;;;16.23;72.19;95314.34;5075676;28;20019;-81
2022/07/10 01:20:29;;;;;;;13.40;11.15;;;;;;;16.12;72.63;95319.38;5074217;28;20173;-81
2022/07/10 01:22:55;;;;;;;15.57;11.73;;;;;;;16.12;72.56;95313.16;5092570;28;20028;-81
2022/07/10 01:25:20;;;;;;;15.10;11.90;;;;;;;16.09;72.87;95308.16;5108452;28;20065;-81
2022/07/10 01:27:46;;;;;;;15.32;12.65;;;;;;;16.13;72.61;95306.69;5091104;28;20027;-81
2022/07/10 01:30:11;;;;;;;15.68;12.60;;;;;;;16.11;72.50;95303.34;5090224;28;20093;-80
2022/07/10 01:32:38;;;;;;;15.45;11.55;;;;;;;16.06;72.73;95304.00;5090602;28;20023;-81
2022/07/10 01:35:04;;;;;;;12.43;11.07;;;;;;;16.05;72.73;95307.75;5056858;28;20863;-81
2022/07/10 01:37:29;;;;;;;14.10;12.65;;;;;;;16.01;72.93;95301.94;5108879;28;20513;-81
2022/07/10 01:39:55;;;;;;;14.02;12.10;;;;;;;16.04;72.78;95298.00;5090794;28;20031;-81
2022/07/10 01:42:20;;;;;;;13.40;11.85;;;;;;;15.95;73.43;95291.94;5108446;28;20020;-81
2022/07/10 01:44:46;;;;;;;13.98;11.63;;;;;;;15.98;73.16;95291.56;5091076;28;20031;-81
2022/07/10 01:47:12;;;;;;;14.35;11.98;;;;;;;16.00;73.06;95294.03;5090277;28;20035;-81
2022/07/10 01:49:38;;;;;;;17.95;11.88;;;;;;;16.00;72.84;95294.03;5109116;28;20492;-81
2022/07/10 01:52:04;;;;;;;12.15;10.85;;;;;;;15.96;72.64;95295.50;5090023;28;20024;-81
2022/07/10 01:54:29;;;;;;;15.57;11.00;;;;;;;15.91;72.72;95296.94;5108684;28;20514;-81
2022/07/10 01:56:54;;;;;;;12.32;11.02;;;;;;;15.90;72.66;95289.06;5073320;28;20130;-81
2022/07/10 01:59:20;;;;;;;12.25;10.48;;;;;;;15.93;72.55;95291.31;5107771;28;20024;-81
2022/07/10 02:01:45;;;;;;;14.50;10.93;;;;;;;15.99;72.02;95287.78;5090530;28;20024;-81
2022/07/10 02:06:55;;;;;;;12.90;10.88;;;;;;;16.06;71.60;95285.06;5108596;28;20050;-79
2022/07/10 02:09:20;;;;;;;13.60;10.75;;;;;;;15.94;72.01;95285.69;5107367;28;20028;-80
2022/07/10 02:11:46;;;;;;;13.00;11.40;;;;;;;15.97;71.94;95284.47;5089869;28;20514;-79
2022/07/10 02:14:11;;;;;;;12.88;10.57;;;;;;;15.99;72.05;95286.97;5089590;28;20073;-80
2022/07/10 02:16:37;;;;;;;15.77;11.73;;;;;;;15.89;72.57;95282.00;5088734;28;20462;-80
2022/07/10 02:19:03;;;;;;;14.65;12.07;;;;;;;15.88;72.64;95278.44;5108962;28;20059;-80
2022/07/10 02:21:28;;;;;;;12.38;10.95;;;;;;;15.80;72.79;95289.50;5089460;28;20051;-80
2022/07/10 02:23:54;;;;;;;14.35;11.00;;;;;;;15.86;72.39;95282.44;5090121;28;20406;-80
2022/07/10 02:26:19;;;;;;;15.73;11.70;;;;;;;15.82;72.41;95280.16;5107697;28;20023;-80
2022/07/10 02:28:45;;;;;;;12.07;10.77;;;;;;;15.76;72.64;95280.16;5108541;28;20020;-80
2022/07/10 02:31:10;;;;;;;13.05;11.50;;;;;;;15.73;72.76;95277.91;5089287;28;20040;-81
2022/07/10 02:33:36;;;;;;;12.82;11.48;;;;;;;15.75;72.73;95283.94;5107556;28;20023;-81
2022/07/10 02:36:02;;;;;;;13.82;11.38;;;;;;;15.83;72.27;95278.25;5089495;28;20023;-81
2022/07/10 02:38:28;;;;;;;13.07;10.57;;;;;;;15.78;72.53;95275.38;5089148;28;20136;-81
2022/07/10 02:40:53;;;;;;;13.52;10.70;;;;;;;15.84;72.52;95279.94;5090001;28;20039;-81
2022/07/10 02:43:19;;;;;;;12.75;10.80;;;;;;;15.87;72.13;95284.91;5107563;28;20032;-81
2022/07/10 02:45:44;;;;;;;15.35;11.13;;;;;;;15.81;71.94;95281.19;5108262;28;20020;-81
2022/07/10 02:48:10;;;;;;;13.65;11.15;;;;;;;15.76;72.46;95283.72;5089220;28;20129;-81
2022/07/10 02:50:35;;;;;;;15.77;11.50;;;;;;;15.67;72.33;95279.59;5089207;28;20533;-81
2022/07/10 02:53:00;;;;;;;14.88;11.30;;;;;;;15.70;72.51;95287.28;5089720;28;20101;-81
2022/07/10 02:55:26;;;;;;;14.48;11.68;;;;;;;15.71;72.34;95286.22;5090027;28;20840;-81
2022/07/10 02:57:51;;;;;;;14.68;11.05;;;;;;;15.69;72.40;95289.13;5089486;28;20051;-81
2022/07/10 03:00:17;;;;;;;11.95;10.25;;;;;;;15.74;72.38;95290.34;5088864;28;20034;-81
2022/07/10 03:02:42;;;;;;;13.38;10.85;;;;;;;15.68;72.34;95298.31;5107335;28;20023;-81
2022/07/10 03:05:08;;;;;;;13.20;11.05;;;;;;;15.78;72.11;95288.91;5088230;28;20039;-81
2022/07/10 03:07:33;;;;;;;14.93;11.35;;;;;;;15.61;72.66;95294.78;5107963;28;20035;-80
2022/07/10 03:09:59;;;;;;;14.45;11.32;;;;;;;15.55;72.94;95298.31;5087956;28;20044;-81
2022/07/10 03:12:24;;;;;;;13.10;11.18;;;;;;;15.53;73.02;95297.69;5107424;28;20024;-81
2022/07/10 03:14:50;;;;;;;12.40;10.45;;;;;;;15.50;73.31;95303.53;5106583;28;20049;-80
2022/07/10 03:17:15;;;;;;;13.57;11.18;;;;;;;15.60;72.75;95305.78;5088373;28;20028;-80
2022/07/10 03:19:41;;;;;;;19.40;10.88;;;;;;;15.57;73.10;95304.38;5054598;28;20031;-80
2022/07/10 03:22:06;;;;;;;16.95;11.25;;;;;;;15.64;72.82;95313.28;5106456;28;20467;-79
2022/07/10 03:24:32;;;;;;;13.35;10.82;;;;;;;15.68;72.73;95309.13;5106944;28;20402;-81
2022/07/10 03:26:57;;;;;;;16.67;11.30;;;;;;;15.60;73.14;95311.19;5106093;28;20421;-81
2022/07/10 03:29:22;;;;;;;16.52;11.38;;;;;;;15.55;73.40;95309.97;5107470;28;20538;-80
2022/07/10 03:31:48;;;;;;;16.00;11.82;;;;;;;15.56;73.35;95306.22;5106190;28;20020;-80
2022/07/10 03:34:13;;;;;;;15.25;10.85;;;;;;;15.60;73.15;95306.63;5106496;28;20040;-80
2022/07/10 03:36:39;;;;;;;15.85;11.27;;;;;;;15.75;72.71;95308.25;5106262;28;20032;-80
2022/07/10 03:39:04;;;;;;;15.05;11.25;;;;;;;15.75;72.43;95310.97;5087530;28;20032;-80
2022/07/10 03:41:30;;;;;;;14.50;11.73;;;;;;;15.76;72.56;95309.91;5071490;28;20023;-81
2022/07/10 03:43:55;;;;;;;14.18;10.48;;;;;;;15.82;72.51;95309.06;5106046;28;20015;-80
2022/07/10 03:46:21;;;;;;;14.95;11.55;;;;;;;15.88;72.26;95307.38;5071450;28;20023;-80
2022/07/10 03:48:46;;;;;;;12.45;11.15;;;;;;;15.98;71.90;95307.78;5105723;28;20035;-81
2022/07/10 03:51:12;;;;;;;15.77;11.07;;;;;;;16.04;71.90;95301.50;5106655;28;20539;-79
2022/07/10 03:53:37;;;;;;;13.40;10.60;;;;;;;16.06;71.66;95296.72;5105814;28;20046;-81
2022/07/10 03:56:03;;;;;;;15.77;10.90;;;;;;;16.05;71.79;95299.66;5070744;28;20020;-80
2022/07/10 03:58:28;;;;;;;14.40;11.40;;;;;;;16.07;71.50;95300.28;5087813;28;20434;-80
2022/07/10 04:00:54;;;;;;;13.23;10.35;;;;;;;16.05;71.99;95292.38;5070386;28;20500;-81
2022/07/10 04:03:19;;;;;;;13.10;11.30;;;;;;;16.11;71.70;95298.78;5087756;28;20470;-80
2022/07/10 04:05:45;;;;;;;12.88;10.50;;;;;;;16.10;71.66;95290.88;5087356;28;20058;-80
2022/07/10 04:08:10;;;;;;;12.52;11.23;;;;;;;16.11;71.91;95293.38;5105964;28;20433;-81
2022/07/10 04:10:36;;;;;;;12.38;10.88;;;;;;;16.06;72.25;95294.03;5105612;28;20375;-81
2022/07/10 04:13:02;;;;;;;14.45;11.18;;;;;;;16.07;72.20;95292.16;5088204;28;20024;-80
2022/07/10 04:15:27;;;;;;;14.02;11.07;;;;;;;16.22;71.62;95291.84;5071440;28;20019;-80
2022/07/10 04:17:53;;;;;;;12.32;10.52;;;;;;;16.33;71.51;95293.03;5088484;28;20410;-80
2022/07/10 04:20:19;;;;;;;12.90;10.65;;;;;;;16.47;71.37;95288.41;5070662;28;20051;-81
2022/07/10 04:22:44;;;;;;;12.23;10.10;;;;;;;16.52;71.23;95287.75;5053610;28;20454;-81
2022/07/10 04:25:10;;;;;;;12.35;10.25;;;;;;;16.43;71.21;95288.00;5087404;28;20026;-81
2022/07/10 04:27:35;;;;;;;12.55;9.48;;;;;;;16.61;70.56;95285.59;5070244;28;20511;-80
2022/07/10 04:30:01;;;;;;;11.25;10.05;;;;;;;16.40;70.90;95285.72;5105869;28;20044;-80
2022/07/10 04:32:27;;;;;;;10.55;9.45;;;;;;;16.51;71.02;95277.94;5070038;28;20889;-80
2022/07/10 04:34:53;;;;;;;13.27;10.13;;;;;;;16.67;70.46;95280.13;5087300;28;20027;-80
2022/07/10 04:37:19;;;;;;;11.32;9.95;;;;;;;16.73;69.80;95273.03;5105710;28;20069;-81
2022/07/10 04:39:44;;;;;;;13.60;10.27;;;;;;;16.76;69.72;95279.88;5108909;28;20027;-80
2022/07/10 04:42:10;;;;;;;11.65;9.65;;;;;;;16.85;69.54;95283.13;5074354;28;20035;-81
2022/07/10 04:44:39;;;;;;;11.52;9.73;;;;;;;16.84;69.06;95276.88;5109167;28;20019;-80
2022/07/10 04:47:04;;;;;;;10.98;9.60;;;;;;;16.98;69.00;95288.44;5092268;28;20024;-81
2022/07/10 04:49:30;;;;;;;12.38;9.80;;;;;;;17.01;68.77;95288.00;5109610;28;20465;-81
2022/07/10 04:51:56;;;;;;;13.15;9.20;;;;;;;16.97;68.76;95284.09;5074736;28;20020;-80
2022/07/10 04:54:22;;;;;;;11.60;9.15;;;;;;;17.02;68.36;95288.84;5073827;28;20019;-80
2022/07/10 04:56:47;;;;;;;11.48;10.02;;;;;;;17.14;68.59;95287.09;5074205;28;20031;-80
2022/07/10 04:59:12;;;;;;;11.95;9.88;;;;;;;17.06;68.87;95284.63;5109396;28;20030;-79
2022/07/10 05:01:38;;;;;;;11.50;10.30;;;;;;;17.17;68.44;95281.22;5110195;28;20116;-79
2022/07/10 05:04:04;;;;;;;11.05;9.90;;;;;;;17.28;68.67;95286.97;5109281;28;20036;-79
2022/07/10 05:06:30;;;;;;;12.32;9.35;;;;;;;17.30;68.97;95277.56;5073716;28;20032;-81
2022/07/10 05:08:55;;;;;;;12.07;9.52;;;;;;;17.28;69.39;95282.34;5109934;28;20023;-81
2022/07/10 05:11:21;;;;;;;11.43;9.45;;;;;;;17.34;69.57;95282.53;5074378;28;20425;-81
2022/07/10 05:13:48;;;;;;;11.27;9.77;;;;;;;17.50;68.76;95276.53;5090992;28;20031;-81
2022/07/10 05:16:14;;;;;;;13.18;9.88;;;;;;;17.44;68.88;95280.16;5090794;28;20019;-80
2022/07/10 05:18:39;;;;;;;11.90;8.85;;;;;;;17.56;67.81;95277.50;5056848;28;20050;-82
2022/07/10 05:21:05;;;;;;;11.43;9.85;;;;;;;17.49;68.18;95274.03;5108313;28;20102;-81
2022/07/10 05:23:31;;;;;;;13.65;9.75;;;;;;;17.25;68.66;95287.41;5090320;28;20076;-81
2022/07/10 05:25:56;;;;;;;10.15;9.15;;;;;;;17.47;69.04;95276.13;5073856;28;20027;-80
2022/07/10 05:28:22;;;;;;;10.43;9.43;;;;;;;17.70;68.24;95277.38;5115494;28;20012;-79
2022/07/10 05:30:48;;;;;;;10.30;8.55;;;;;;;17.74;67.69;95276.69;5114972;28;20023;-81
2022/07/10 05:33:14;;;;;;;8.93;8.02;;;;;;;17.70;67.04;95282.78;5089639;28;20103;-80
2022/07/10 05:35:40;;;;;;;9.45;8.38;;;;;;;17.90;66.16;95269.81;5090260;28;20032;-80
2022/07/10 05:38:05;;;;;;;10.65;8.35;;;;;;;17.88;66.64;95280.06;5090029;28;20057;-81
2022/07/10 05:40:31;;;;;;;10.23;8.20;;;;;;;18.13;66.27;95271.03;5073042;28;20043;-81
2022/07/10 05:42:57;;;;;;;10.23;8.25;;;;;;;18.32;64.91;95273.69;5056693;28;20109;-81
2022/07/10 05:45:23;;;;;;;8.95;8.02;;;;;;;18.13;65.37;95273.75;5107873;28;20037;-80
2022/07/10 05:47:48;;;;;;;8.77;7.88;;;;;;;18.33;64.74;95275.34;5073840;28;20039;-80
2022/07/10 05:50:13;;;;;;;8.23;6.82;;;;;;;18.47;64.04;95277.88;5089622;28;20089;-81
2022/07/10 05:52:39;;;;;;;7.97;7.13;;;;;;;18.56;63.59;95268.34;5090151;28;20502;-81
2022/07/10 05:55:05;;;;;;;8.65;7.65;;;;;;;18.51;63.52;95273.63;5090011;28;20027;-81
2022/07/10 05:57:31;;;;;;;9.65;7.55;;;;;;;18.69;63.96;95272.75;5108166;28;20024;-81
2022/07/10 05:59:57;;;;;;;12.52;7.57;;;;;;;18.70;64.21;95270.88;5108660;28;20051;-81
2022/07/10 06:02:22;;;;;;;8.80;7.72;;;;;;;18.71;63.19;95275.22;5089900;28;20024;-82
2022/07/10 06:04:49;;;;;;;10.88;7.57;;;;;;;19.00;62.87;95275.41;5107545;28;20059;-81
2022/07/10 06:07:14;;;;;;;7.80;6.93;;;;;;;19.15;62.02;95270.34;5056463;28;20512;-81
2022/07/10 06:09:40;;;;;;;9.13;7.13;;;;;;;19.03;61.62;95272.22;5108133;28;20114;-81
2022/07/10 06:12:05;;;;;;;7.53;6.78;;;;;;;19.06;61.94;95268.19;5073049;28;20028;-81
2022/07/10 06:14:31;;;;;;;7.72;6.93;;;;;;;18.94;61.38;95263.59;5108235;28;20024;-80
2022/07/10 06:16:56;;;;;;;11.07;6.65;;;;;;;18.94;61.63;95268.19;5089698;28;20680;-80
2022/07/10 06:19:22;;;;;;;8.15;6.68;;;;;;;18.80;61.81;95256.72;5109100;28;20032;-80
2022/07/10 06:21:47;;;;;;;9.32;6.55;;;;;;;19.03;61.46;95264.06;5110432;28;20024;-81
2022/07/10 06:24:13;;;;;;;6.80;6.20;;;;;;;19.28;60.33;95263.06;5110312;28;20027;-80
2022/07/10 06:26:38;;;;;;;11.90;6.25;;;;;;;19.30;60.04;95266.34;5107651;28;20085;-80
2022/07/10 06:29:03;;;;;;;9.40;6.35;;;;;;;19.27;60.49;95266.81;5089645;28;20028;-81
2022/07/10 06:31:29;;;;;;;7.93;5.90;;;;;;;19.58;59.95;95261.25;5089744;28;20115;-80
2022/07/10 06:33:54;;;;;;;8.32;5.80;;;;;;;19.29;60.26;95259.25;5089096;28;20081;-81
2022/07/10 06:36:20;;;;;;;8.77;6.03;;;;;;;19.39;60.51;95264.09;5088754;28;20039;-81
2022/07/10 06:38:45;;;;;;;7.80;6.00;;;;;;;19.42;60.81;95257.34;5071939;28;20516;-81
2022/07/10 06:41:11;;;;;;;7.43;6.45;;;;;;;19.43;60.79;95264.44;5107379;28;20032;-81
2022/07/10 06:43:36;;;;;;;8.65;5.75;;;;;;;19.27;61.57;95261.38;5088531;28;20023;-81
2022/07/10 06:46:02;;;;;;;9.10;6.07;;;;;;;19.34;60.61;95262.09;5107240;28;20020;-81
2022/07/10 06:48:27;;;;;;;6.20;5.60;;;;;;;19.49;59.98;95258.88;5089253;28;20287;-81
2022/07/10 06:50:53;;;;;;;12.80;5.78;;;;;;;19.56;60.12;95257.91;5071818;28;20377;-81
2022/07/10 06:53:23;;;;;;;8.57;5.97;;;;;;;19.70;59.08;95258.50;5088921;28;20027;-81
2022/07/10 06:55:52;;;;;;;10.25;6.28;;;;;;;19.37;60.28;95261.63;5073082;28;20043;-81
2022/07/10 06:58:18;;;;;;;7.15;6.40;;;;;;;19.17;61.32;95261.97;5106658;28;20023;-81
2022/07/10 07:00:43;;;;;;;9.48;6.43;;;;;;;19.06;61.83;95257.31;5087742;28;20505;-80
2022/07/10 07:03:09;;;;;;;7.25;5.72;;;;;;;19.13;61.48;95253.47;5088238;28;20070;-82
2022/07/10 07:05:34;;;;;;;9.27;6.10;;;;;;;19.14;60.88;95255.13;5106540;28;20047;-81
2022/07/10 07:08:00;;;;;;;8.02;5.90;;;;;;;19.24;61.24;95240.09;5107475;28;20032;-81
2022/07/10 07:10:25;;;;;;;8.55;5.78;;;;;;;19.42;60.97;95244.59;5106865;28;20479;-81
2022/07/10 07:12:51;;;;;;;7.93;5.78;;;;;;;19.58;60.90;95247.63;5071127;28;20035;-81
2022/07/10 07:15:16;;;;;;;8.45;5.68;;;;;;;19.80;59.74;95252.47;5106936;28;20030;-81
2022/07/10 07:18:16;;;;;;;6.72;4.93;;;;;;;19.58;59.25;95240.31;5071048;28;20020;-82
2022/07/10 07:23:19;;;;;;;7.72;4.80;;;;;;;19.77;58.52;95237.44;5090997;28;20035;-80
2022/07/10 07:25:47;;;;;;;7.70;5.72;;;;;;;19.96;58.37;95226.34;5088345;28;20012;-82
2022/07/10 07:28:15;;;;;;;7.15;4.88;;;;;;;20.06;56.86;95228.50;5106434;28;20482;-81
2022/07/10 07:30:44;;;;;;;5.18;4.32;;;;;;;19.99;57.17;95237.59;5071329;28;20028;-80
2022/07/10 07:33:09;;;;;;;7.10;4.18;;;;;;;20.06;57.33;95229.31;5087518;28;20035;-79
2022/07/10 07:35:35;;;;;;;9.75;4.50;;;;;;;20.04;56.98;95227.94;5106147;28;20031;-81
2022/07/10 07:38:01;;;;;;;5.75;4.15;;;;;;;20.08;55.56;95234.53;5087625;28;20049;-80
2022/07/10 07:40:26;;;;;;;5.78;4.07;;;;;;;20.01;55.56;95227.31;5071006;28;20414;-80
2022/07/10 07:42:56;;;;;;;8.73;4.38;;;;;;;20.04;56.26;95234.19;5087574;28;20477;-81
2022/07/10 07:45:24;;;;;;;5.65;4.32;;;;;;;20.11;55.87;95231.31;5088487;28;20538;-80
2022/07/10 07:47:51;;;;;;;6.30;4.10;;;;;;;20.24;56.27;95231.03;5087330;28;20031;-80
2022/07/10 07:50:18;;;;;;;5.70;4.28;;;;;;;20.48;55.30;95232.81;5105536;28;20055;-81
2022/07/10 07:52:44;;;;;;;4.93;3.90;;;;;;;20.58;54.60;95227.56;5070509;28;20081;-81
2022/07/10 07:55:10;;;;;;;5.45;4.00;;;;;;;20.78;54.13;95222.69;5105933;28;20108;-81
2022/07/10 07:57:35;;;;;;;4.72;4.05;;;;;;;20.73;54.30;95221.53;5087751;28;20106;-81
2022/07/10 08:00:01;;;;;;;6.82;4.05;;;;;;;20.84;53.31;95224.44;5070307;28;20044;-80
2022/07/10 08:02:26;;;;;;;3.85;3.47;;;;;;;20.57;54.49;95228.59;5105981;28;20106;-81
2022/07/10 08:04:52;;;;;;;6.15;3.95;;;;;;;20.85;54.99;95221.47;5087144;28;20441;-81
2022/07/10 08:07:17;;;;;;;6.68;3.65;;;;;;;21.16;53.42;95223.03;5069832;28;20036;-81
2022/07/10 08:09:44;;;;;;;5.47;3.80;;;;;;;21.35;52.56;95223.59;5086803;28;20085;-81
2022/07/10 08:12:09;;;;;;;8.30;3.70;;;;;;;21.15;52.90;95215.94;5105077;28;20047;-81
2022/07/10 08:14:35;;;;;;;5.45;4.15;;;;;;;21.15;51.77;95216.75;5086543;28;20463;-82
2022/07/10 08:17:00;;;;;;;5.00;3.47;;;;;;;21.10;52.31;95217.50;5105619;28;20031;-81
2022/07/10 08:19:26;;;;;;;6.43;3.88;;;;;;;20.93;53.61;95219.41;5087262;28;20028;-81
2022/07/10 08:21:51;;;;;;;5.70;3.70;;;;;;;20.60;53.53;95217.22;5071003;28;20035;-81
2022/07/10 08:24:17;;;;;;;5.13;3.72;;;;;;;20.53;53.42;95223.91;5109557;28;20027;-81
2022/07/10 08:26:43;;;;;;;7.57;3.97;;;;;;;20.64;53.23;95214.84;5106368;28;20425;-82
2022/07/10 08:29:08;;;;;;;3.85;3.42;;;;;;;20.86;52.49;95212.19;5105199;28;20111;-82
2022/07/10 08:31:34;;;;;;;7.05;3.40;;;;;;;20.82;52.20;95219.22;5105755;28;20023;-80
2022/07/10 08:34:00;;;;;;;5.68;3.97;;;;;;;20.83;51.52;95215.41;5086723;28;20028;-81
2022/07/10 08:36:26;;;;;;;8.02;3.63;;;;;;;21.06;51.33;95218.25;5105107;28;20031;-81
2022/07/10 08:38:53;;;;;;;12.45;3.90;;;;;;;21.06;52.05;95212.78;5105063;28;20658;-80
2022/07/10 08:41:22;;;;;;;6.43;3.75;;;;;;;21.10;52.42;95220.22;5105153;28;20027;-80
2022/07/10 08:43:47;;;;;;;4.10;3.67;;;;;;;21.31;51.75;95209.63;5070406;28;20085;-81
2022/07/10 08:46:13;;;;;;;6.43;3.47;;;;;;;21.59;50.99;95209.72;5086530;28;20042;-83
2022/07/10 08:48:38;;;;;;;8.88;3.67;;;;;;;21.66;50.62;95209.53;5069919;28;20015;-80
2022/07/10 08:51:04;;;;;;;3.97;3.33;;;;;;;21.66;50.13;95201.34;5070485;28;20051;-80
2022/07/10 08:53:31;;;;;;;5.53;3.58;;;;;;;21.53;50.39;95208.84;5069683;28;20032;-80
2022/07/10 08:55:59;;;;;;;4.53;3.33;;;;;;;21.51;50.00;95208.25;5087889;28;20826;-79
2022/07/10 08:58:26;;;;;;;6.68;3.30;;;;;;;21.77;51.31;95211.34;5105940;28;20114;-82
2022/07/10 09:00:51;;;;;;;4.43;3.90;;;;;;;21.59;50.48;95209.72;5104969;28;20028;-81
2022/07/10 09:03:17;;;;;;;4.97;3.70;;;;;;;21.78;50.38;95195.81;5086715;28;20022;-81
2022/07/10 09:05:42;;;;;;;7.50;3.53;;;;;;;21.95;49.88;95202.00;5086436;28;20101;-80
2022/07/10 09:08:28;;;;;;;7.10;3.17;;;;;;;21.80;49.57;95201.81;5086484;28;20035;-80
2022/07/10 09:11:14;;;;;;;5.75;3.60;;;;;;;21.99;51.38;95196.84;5086728;28;20032;-81
2022/07/10 09:13:52;;;;;;;3.80;3.22;;;;;;;22.24;50.23;95200.94;5087800;28;20096;-82
2022/07/10 09:16:25;;;;;;;4.38;3.10;;;;;;;21.97;48.62;95199.84;5086528;28;20476;-81
2022/07/10 09:18:51;;;;;;;6.75;2.88;;;;;;;22.28;46.93;95196.59;5086676;28;20039;-81
2022/07/10 09:21:16;;;;;;;7.05;3.30;;;;;;;21.88;48.27;95195.91;5086412;28;20027;-81
2022/07/10 09:23:42;;;;;;;5.00;3.60;;;;;;;21.82;47.97;95195.03;5105669;28;20110;-81
2022/07/10 09:26:07;;;;;;;7.32;2.97;;;;;;;22.22;46.80;95194.91;5091694;28;20185;-82
2022/07/10 09:28:32;;;;;;;5.15;2.85;;;;;;;22.32;47.37;95188.72;5091851;28;20035;-81
2022/07/10 09:30:58;;;;;;;4.45;3.30;;;;;;;22.22;46.61;95178.53;5109039;28;20466;-82
2022/07/10 09:33:29;;;;;;;5.75;2.80;;;;;;;22.10;45.51;95192.34;5108753;28;20522;-82
2022/07/10 09:38:44;;;;;;;6.10;3.00;;;;;;;21.71;48.29;95190.50;5091280;28;20031;-82
2022/07/10 09:41:14;;;;;;;5.00;2.90;;;;;;;21.64;48.16;95182.50;5108428;28;20074;-81
2022/07/10 09:43:55;;;;;;;3.15;2.72;;;;;;;21.90;48.58;95182.00;5090094;28;20031;-82
2022/07/10 09:46:22;;;;;;;4.50;2.80;;;;;;;22.09;46.84;95185.22;5058306;28;20030;-82
2022/07/10 09:48:49;;;;;;;4.22;2.90;;;;;;;22.14;47.02;95176.25;5111348;28;20055;-81
2022/07/10 09:51:15;;;;;;;6.57;2.78;;;;;;;21.88;47.54;95176.00;5093207;28;20023;-82
2022/07/10 09:53:41;;;;;;;5.10;3.17;;;;;;;21.95;47.58;95171.16;5089565;28;20501;-82
2022/07/10 09:56:08;;;;;;;4.25;3.28;;;;;;;22.10;47.11;95175.97;5073184;28;20104;-81
2022/07/10 09:58:37;;;;;;;3.60;2.72;;;;;;;22.18;46.99;95174.69;5090136;28;20024;-81
2022/07/10 10:01:06;;;;;;;4.22;3.03;;;;;;;22.37;46.69;95185.22;5073961;28;20477;-81
2022/07/10 10:03:36;;;;;;;6.53;3.00;;;;;;;22.43;47.37;95179.56;5090355;28;20493;-84
2022/07/10 10:06:11;;;;;;;4.72;2.83;;;;;;;22.33;47.61;95177.56;5069358;28;20155;-83
2022/07/10 10:09:14;;;;;;;5.32;2.83;;;;;;;21.94;47.15;95172.25;5085880;28;20032;-82
2022/07/10 10:11:41;;;;;;;4.07;2.97;;;;;;;21.98;47.32;95178.81;5087576;28;20032;-81
2022/07/10 10:14:07;;;;;;;3.35;2.75;;;;;;;22.02;47.42;95184.59;5086236;28;20675;-82
2022/07/10 10:16:32;;;;;;;3.95;2.65;;;;;;;22.01;46.52;95178.31;5069663;28;20020;-81
2022/07/10 10:21:42;;;;;;;4.05;2.47;;;;;;;21.89;48.15;95174.91;5085757;28;20059;-82
2022/07/10 10:24:07;;;;;;;5.38;2.60;;;;;;;21.71;48.48;95171.41;5069088;28;20020;-81
2022/07/10 10:26:33;;;;;;;4.38;2.90;;;;;;;21.77;48.41;95170.41;5068979;28;20020;-82
2022/07/10 10:29:00;;;;;;;3.72;2.67;;;;;;;21.76;48.32;95166.00;5087286;28;20028;-82
2022/07/10 10:31:26;;;;;;;3.70;2.72;;;;;;;21.94;48.67;95162.13;5086065;28;20475;-82
2022/07/10 10:33:55;;;;;;;4.95;2.70;;;;;;;22.02;47.82;95155.38;5069086;28;20502;-80
2022/07/10 10:36:45;;;;;;;4.15;2.67;;;;;;;22.07;47.77;95160.91;5068242;28;20043;-81
2022/07/10 10:39:13;;;;;;;5.38;2.42;;;;;;;22.26;46.63;95157.81;5087132;28;20028;-80
2022/07/10 10:41:38;;;;;;;4.55;2.60;;;;;;;22.51;45.94;95153.66;5086943;28;20028;-82
2022/07/10 10:44:14;;;;;;;3.92;2.80;;;;;;;22.89;46.98;95161.09;5086569;28;20027;-82
2022/07/10 10:47:02;;;;;;;5.43;2.35;;;;;;;22.80;45.83;95156.13;5087205;28;20016;-84
2022/07/10 10:49:48;;;;;;;3.42;2.72;;;;;;;22.80;45.30;95156.13;5085468;28;20034;-80
2022/07/10 10:52:15;;;;;;;3.83;2.80;;;;;;;22.80;45.94;95150.66;5071649;28;20121;-81
2022/07/10 10:54:56;;;;;;;4.80;2.70;;;;;;;22.72;45.30;95149.22;5085273;28;20456;-82
2022/07/10 10:57:21;;;;;;;5.20;2.80;;;;;;;22.50;46.09;95146.56;5085784;28;20077;-81
2022/07/10 10:59:48;;;;;;;3.50;2.50;;;;;;;22.79;44.49;95143.53;5068723;28;20031;-83
2022/07/10 11:02:41;;;;;;;3.38;2.50;;;;;;;22.46;45.59;95145.41;5085631;28;20031;-83
2022/07/10 11:08:01;;;;;;;3.60;2.60;;;;;;;22.38;45.41;95143.16;5086530;28;20051;-80
2022/07/10 11:10:29;;;;;;;3.28;2.40;;;;;;;22.52;45.20;95141.63;5086797;28;20036;-81
2022/07/10 11:13:10;;;;;;;4.82;2.70;;;;;;;22.50;45.56;95143.84;5086752;28;20032;-82
2022/07/10 11:15:41;;;;;;;6.05;2.63;;;;;;;22.81;45.57;95140.53;5084866;28;20107;-81
2022/07/10 11:18:13;;;;;;;3.38;2.30;;;;;;;22.77;46.22;95142.97;5084771;28;20027;-81
2022/07/10 11:20:41;;;;;;;3.38;2.42;;;;;;;22.86;45.59;95137.81;5084620;28;20032;-82
2022/07/10 11:23:43;;;;;;;3.45;2.40;;;;;;;22.89;45.51;95136.50;5067947;28;20629;-82
2022/07/10 11:26:11;;;;;;;4.80;2.47;;;;;;;22.79;44.92;95142.72;5084765;28;20032;-82
2022/07/10 11:28:58;;;;;;;3.08;2.22;;;;;;;22.71;46.05;95130.34;5068011;28;20398;-81
2022/07/10 11:31:24;;;;;;;7.43;2.78;;;;;;;22.75;46.15;95130.66;5084515;28;20020;-82
2022/07/10 11:33:51;;;;;;;5.13;2.58;;;;;;;22.66;45.28;95133.03;5085775;28;20131;-80
2022/07/10 11:36:18;;;;;;;4.00;2.50;;;;;;;22.64;45.37;95136.03;5051076;28;20016;-81
2022/07/10 11:38:44;;;;;;;4.15;2.10;;;;;;;22.69;44.96;95135.25;5070987;28;20107;-81